sensor_id;sensor_type;location;lat;lon;timestamp;P1;durP1;ratioP1;P2;durP2;ratioP2
29320;SDS011;16323;51.130;6.612;2023-04-25T00:02:07;2.45;;;0.90;;
29320;SDS011;16323;51.130;6.612;2023-04-25T00:04:34;2.08;;;0.93;;
29320;SDS011;16323;51.130;6.612;2023-04-25T00:07:02;1.83;;;0.90;;
29320;SDS011;16323;51.130;6.612;2023-04-25T00:09:31;3.97;;;1.08;;
29320;SDS011;16323;51.130;6.612;2023-04-25T00:11:58;3.10;;;1.42;;
29320;SDS011;16323;51.130;6.612;2023-04-25T00:14:26;2.80;;;1.33;;
29320;SDS011;16323;51.130;6.612;2023-04-25T00:16:53;1.88;;;0.80;;
29320;SDS011;16323;51.130;6.612;2023-04-25T00:19:20;2.92;;;1.10;;
29320;SDS011;16323;51.130;6.612;2023-04-25T00:21:47;2.40;;;0.93;;
29320;SDS011;16323;51.130;6.612;2023-04-25T00:24:14;3.03;;;1.33;;
29320;SDS011;16323;51.130;6.612;2023-04-25T00:26:42;2.22;;;0.93;;
29320;SDS011;16323;51.130;6.612;2023-04-25T00:29:08;1.92;;;1.08;;
29320;SDS011;16323;51.130;6.612;2023-04-25T00:31:35;2.75;;;1.23;;
29320;SDS011;16323;51.130;6.612;2023-04-25T00:34:02;4.50;;;1.08;;
29320;SDS011;16323;51.130;6.612;2023-04-25T00:36:29;1.65;;;0.90;;
29320;SDS011;16323;51.130;6.612;2023-04-25T00:38:56;1.85;;;1.00;;
29320;SDS011;16323;51.130;6.612;2023-04-25T00:41:23;2.00;;;0.95;;
29320;SDS011;16323;51.130;6.612;2023-04-25T00:43:52;2.17;;;1.02;;
29320;SDS011;16323;51.130;6.612;2023-04-25T00:46:20;2.50;;;1.10;;
29320;SDS011;16323;51.130;6.612;2023-04-25T00:48:47;3.63;;;1.40;;
29320;SDS011;16323;51.130;6.612;2023-04-25T00:51:15;2.97;;;1.20;;
29320;SDS011;16323;51.130;6.612;2023-04-25T00:53:45;2.50;;;0.90;;
29320;SDS011;16323;51.130;6.612;2023-04-25T00:56:13;2.25;;;1.15;;
29320;SDS011;16323;51.130;6.612;2023-04-25T00:58:40;2.60;;;1.10;;
29320;SDS011;16323;51.130;6.612;2023-04-25T01:01:09;1.55;;;1.00;;
29320;SDS011;16323;51.130;6.612;2023-04-25T01:03:37;1.98;;;1.00;;
29320;SDS011;16323;51.130;6.612;2023-04-25T01:06:06;4.20;;;1.10;;
29320;SDS011;16323;51.130;6.612;2023-04-25T01:08:34;1.85;;;1.10;;
29320;SDS011;16323;51.130;6.612;2023-04-25T01:11:01;2.63;;;1.30;;
29320;SDS011;16323;51.130;6.612;2023-04-25T01:13:29;2.70;;;1.17;;
29320;SDS011;16323;51.130;6.612;2023-04-25T01:15:57;2.20;;;1.10;;
29320;SDS011;16323;51.130;6.612;2023-04-25T01:18:25;2.35;;;0.95;;
29320;SDS011;16323;51.130;6.612;2023-04-25T01:20:52;3.80;;;1.50;;
29320;SDS011;16323;51.130;6.612;2023-04-25T01:23:22;6.07;;;1.20;;
29320;SDS011;16323;51.130;6.612;2023-04-25T01:25:49;3.25;;;1.10;;
29320;SDS011;16323;51.130;6.612;2023-04-25T01:28:16;3.03;;;1.02;;
29320;SDS011;16323;51.130;6.612;2023-04-25T01:30:43;1.20;;;0.85;;
29320;SDS011;16323;51.130;6.612;2023-04-25T01:33:11;2.88;;;1.00;;
29320;SDS011;16323;51.130;6.612;2023-04-25T01:35:39;2.65;;;0.98;;
29320;SDS011;16323;51.130;6.612;2023-04-25T01:38:06;1.70;;;1.00;;
29320;SDS011;16323;51.130;6.612;2023-04-25T01:40:35;2.72;;;1.00;;
29320;SDS011;16323;51.130;6.612;2023-04-25T01:43:04;2.03;;;1.00;;
29320;SDS011;16323;51.130;6.612;2023-04-25T01:45:31;3.85;;;1.13;;
29320;SDS011;16323;51.130;6.612;2023-04-25T01:47:59;2.08;;;1.10;;
29320;SDS011;16323;51.130;6.612;2023-04-25T01:50:26;2.25;;;1.23;;
29320;SDS011;16323;51.130;6.612;2023-04-25T01:52:52;2.83;;;1.13;;
29320;SDS011;16323;51.130;6.612;2023-04-25T01:55:20;1.48;;;0.82;;
29320;SDS011;16323;51.130;6.612;2023-04-25T01:57:49;4.13;;;1.25;;
29320;SDS011;16323;51.130;6.612;2023-04-25T02:00:15;1.60;;;0.98;;
29320;SDS011;16323;51.130;6.612;2023-04-25T02:02:42;3.47;;;1.15;;
29320;SDS011;16323;51.130;6.612;2023-04-25T02:05:09;1.83;;;1.02;;
29320;SDS011;16323;51.130;6.612;2023-04-25T02:07:36;2.67;;;1.02;;
29320;SDS011;16323;51.130;6.612;2023-04-25T02:10:03;3.17;;;0.82;;
29320;SDS011;16323;51.130;6.612;2023-04-25T02:12:31;1.90;;;0.88;;
29320;SDS011;16323;51.130;6.612;2023-04-25T02:14:59;2.70;;;1.23;;
29320;SDS011;16323;51.130;6.612;2023-04-25T02:17:26;3.60;;;1.13;;
29320;SDS011;16323;51.130;6.612;2023-04-25T02:19:52;3.40;;;1.05;;
29320;SDS011;16323;51.130;6.612;2023-04-25T02:22:19;4.65;;;1.10;;
29320;SDS011;16323;51.130;6.612;2023-04-25T02:24:46;2.45;;;1.20;;
29320;SDS011;16323;51.130;6.612;2023-04-25T02:27:13;3.53;;;1.08;;
29320;SDS011;16323;51.130;6.612;2023-04-25T02:29:40;2.10;;;1.00;;
29320;SDS011;16323;51.130;6.612;2023-04-25T02:32:08;2.53;;;1.08;;
29320;SDS011;16323;51.130;6.612;2023-04-25T02:34:35;2.45;;;1.10;;
29320;SDS011;16323;51.130;6.612;2023-04-25T02:37:02;1.67;;;1.00;;
29320;SDS011;16323;51.130;6.612;2023-04-25T02:39:29;2.22;;;0.85;;
29320;SDS011;16323;51.130;6.612;2023-04-25T02:41:56;1.45;;;0.80;;
29320;SDS011;16323;51.130;6.612;2023-04-25T02:44:23;2.70;;;1.02;;
29320;SDS011;16323;51.130;6.612;2023-04-25T02:46:50;2.42;;;0.90;;
29320;SDS011;16323;51.130;6.612;2023-04-25T02:49:18;2.05;;;0.90;;
29320;SDS011;16323;51.130;6.612;2023-04-25T02:51:44;1.65;;;0.93;;
29320;SDS011;16323;51.130;6.612;2023-04-25T02:54:11;2.25;;;0.85;;
29320;SDS011;16323;51.130;6.612;2023-04-25T02:56:38;1.20;;;0.70;;
29320;SDS011;16323;51.130;6.612;2023-04-25T02:59:05;1.00;;;0.63;;
29320;SDS011;16323;51.130;6.612;2023-04-25T03:01:32;2.63;;;0.90;;
29320;SDS011;16323;51.130;6.612;2023-04-25T03:03:58;3.88;;;1.00;;
29320;SDS011;16323;51.130;6.612;2023-04-25T03:06:27;3.70;;;0.90;;
29320;SDS011;16323;51.130;6.612;2023-04-25T03:08:53;1.23;;;0.73;;
29320;SDS011;16323;51.130;6.612;2023-04-25T03:11:20;1.88;;;1.00;;
29320;SDS011;16323;51.130;6.612;2023-04-25T03:13:47;3.40;;;1.30;;
29320;SDS011;16323;51.130;6.612;2023-04-25T03:16:13;2.38;;;0.90;;
29320;SDS011;16323;51.130;6.612;2023-04-25T03:18:41;2.80;;;1.00;;
29320;SDS011;16323;51.130;6.612;2023-04-25T03:21:07;2.53;;;0.73;;
29320;SDS011;16323;51.130;6.612;2023-04-25T03:23:36;2.85;;;0.95;;
29320;SDS011;16323;51.130;6.612;2023-04-25T03:26:03;1.65;;;0.98;;
29320;SDS011;16323;51.130;6.612;2023-04-25T03:28:29;1.17;;;0.88;;
29320;SDS011;16323;51.130;6.612;2023-04-25T03:30:56;1.95;;;0.70;;
29320;SDS011;16323;51.130;6.612;2023-04-25T03:33:23;2.30;;;0.90;;
29320;SDS011;16323;51.130;6.612;2023-04-25T03:35:49;2.22;;;1.08;;
29320;SDS011;16323;51.130;6.612;2023-04-25T03:38:17;1.48;;;0.73;;
29320;SDS011;16323;51.130;6.612;2023-04-25T03:40:45;3.58;;;1.13;;
29320;SDS011;16323;51.130;6.612;2023-04-25T03:43:11;2.03;;;0.90;;
29320;SDS011;16323;51.130;6.612;2023-04-25T03:45:38;2.95;;;0.90;;
29320;SDS011;16323;51.130;6.612;2023-04-25T03:48:05;1.75;;;0.80;;
29320;SDS011;16323;51.130;6.612;2023-04-25T03:50:32;2.78;;;1.00;;
29320;SDS011;16323;51.130;6.612;2023-04-25T03:52:59;1.42;;;0.70;;
29320;SDS011;16323;51.130;6.612;2023-04-25T03:55:25;3.22;;;0.98;;
29320;SDS011;16323;51.130;6.612;2023-04-25T03:57:54;2.47;;;1.10;;
29320;SDS011;16323;51.130;6.612;2023-04-25T04:00:20;3.45;;;1.00;;
29320;SDS011;16323;51.130;6.612;2023-04-25T04:02:47;2.45;;;0.80;;
29320;SDS011;16323;51.130;6.612;2023-04-25T04:05:14;1.80;;;0.85;;
29320;SDS011;16323;51.130;6.612;2023-04-25T04:07:41;1.77;;;0.80;;
29320;SDS011;16323;51.130;6.612;2023-04-25T04:10:08;2.05;;;0.75;;
29320;SDS011;16323;51.130;6.612;2023-04-25T04:12:35;1.77;;;0.80;;
29320;SDS011;16323;51.130;6.612;2023-04-25T04:15:04;3.20;;;0.90;;
29320;SDS011;16323;51.130;6.612;2023-04-25T04:17:32;2.55;;;0.85;;
29320;SDS011;16323;51.130;6.612;2023-04-25T04:19:59;1.85;;;0.88;;
29320;SDS011;16323;51.130;6.612;2023-04-25T04:22:26;3.25;;;1.17;;
29320;SDS011;16323;51.130;6.612;2023-04-25T04:24:53;1.23;;;0.75;;
29320;SDS011;16323;51.130;6.612;2023-04-25T04:27:21;2.15;;;0.88;;
29320;SDS011;16323;51.130;6.612;2023-04-25T04:29:49;1.27;;;0.93;;
29320;SDS011;16323;51.130;6.612;2023-04-25T04:32:18;2.40;;;0.68;;
29320;SDS011;16323;51.130;6.612;2023-04-25T04:34:45;3.55;;;1.05;;
29320;SDS011;16323;51.130;6.612;2023-04-25T04:37:13;3.35;;;0.88;;
29320;SDS011;16323;51.130;6.612;2023-04-25T04:39:40;3.10;;;1.17;;
29320;SDS011;16323;51.130;6.612;2023-04-25T04:42:07;2.00;;;0.77;;
29320;SDS011;16323;51.130;6.612;2023-04-25T04:44:34;3.47;;;1.02;;
29320;SDS011;16323;51.130;6.612;2023-04-25T04:47:01;1.73;;;1.00;;
29320;SDS011;16323;51.130;6.612;2023-04-25T04:49:32;1.85;;;0.85;;
29320;SDS011;16323;51.130;6.612;2023-04-25T04:51:59;1.55;;;0.93;;
29320;SDS011;16323;51.130;6.612;2023-04-25T04:54:26;2.50;;;1.17;;
29320;SDS011;16323;51.130;6.612;2023-04-25T04:56:53;2.00;;;0.90;;
29320;SDS011;16323;51.130;6.612;2023-04-25T04:59:19;1.98;;;0.90;;
29320;SDS011;16323;51.130;6.612;2023-04-25T05:01:46;2.13;;;0.85;;
29320;SDS011;16323;51.130;6.612;2023-04-25T05:04:13;2.38;;;0.80;;
29320;SDS011;16323;51.130;6.612;2023-04-25T05:06:41;2.75;;;0.93;;
29320;SDS011;16323;51.130;6.612;2023-04-25T05:09:09;4.43;;;1.35;;
29320;SDS011;16323;51.130;6.612;2023-04-25T05:11:36;2.22;;;1.10;;
29320;SDS011;16323;51.130;6.612;2023-04-25T05:14:02;1.85;;;0.90;;
29320;SDS011;16323;51.130;6.612;2023-04-25T05:16:29;2.33;;;0.98;;
29320;SDS011;16323;51.130;6.612;2023-04-25T05:18:56;2.80;;;1.05;;
29320;SDS011;16323;51.130;6.612;2023-04-25T05:21:23;2.58;;;0.95;;
29320;SDS011;16323;51.130;6.612;2023-04-25T05:23:51;3.17;;;1.35;;
29320;SDS011;16323;51.130;6.612;2023-04-25T05:26:18;3.90;;;1.30;;
29320;SDS011;16323;51.130;6.612;2023-04-25T05:28:45;2.00;;;0.90;;
29320;SDS011;16323;51.130;6.612;2023-04-25T05:31:12;3.42;;;1.35;;
29320;SDS011;16323;51.130;6.612;2023-04-25T05:33:39;3.13;;;1.20;;
29320;SDS011;16323;51.130;6.612;2023-04-25T05:36:06;2.83;;;1.10;;
29320;SDS011;16323;51.130;6.612;2023-04-25T05:38:33;3.38;;;1.10;;
29320;SDS011;16323;51.130;6.612;2023-04-25T05:41:02;4.72;;;1.27;;
29320;SDS011;16323;51.130;6.612;2023-04-25T05:43:29;6.60;;;1.40;;
29320;SDS011;16323;51.130;6.612;2023-04-25T05:45:56;5.15;;;1.20;;
29320;SDS011;16323;51.130;6.612;2023-04-25T05:48:22;4.78;;;1.65;;
29320;SDS011;16323;51.130;6.612;2023-04-25T05:50:49;3.72;;;1.20;;
29320;SDS011;16323;51.130;6.612;2023-04-25T05:53:17;3.10;;;1.27;;
29320;SDS011;16323;51.130;6.612;2023-04-25T05:55:44;3.35;;;1.10;;
29320;SDS011;16323;51.130;6.612;2023-04-25T05:58:12;7.13;;;1.48;;
29320;SDS011;16323;51.130;6.612;2023-04-25T06:00:39;5.55;;;1.33;;
29320;SDS011;16323;51.130;6.612;2023-04-25T06:03:06;3.90;;;1.08;;
29320;SDS011;16323;51.130;6.612;2023-04-25T06:05:34;3.70;;;1.15;;
29320;SDS011;16323;51.130;6.612;2023-04-25T06:08:01;3.90;;;1.20;;
29320;SDS011;16323;51.130;6.612;2023-04-25T06:10:28;4.90;;;1.27;;
29320;SDS011;16323;51.130;6.612;2023-04-25T06:12:55;3.33;;;1.20;;
29320;SDS011;16323;51.130;6.612;2023-04-25T06:15:23;4.32;;;1.40;;
29320;SDS011;16323;51.130;6.612;2023-04-25T06:17:49;3.03;;;1.42;;
29320;SDS011;16323;51.130;6.612;2023-04-25T06:20:16;2.38;;;1.17;;
29320;SDS011;16323;51.130;6.612;2023-04-25T06:22:44;3.05;;;1.05;;
29320;SDS011;16323;51.130;6.612;2023-04-25T06:25:11;2.28;;;1.10;;
29320;SDS011;16323;51.130;6.612;2023-04-25T06:27:38;2.30;;;0.93;;
29320;SDS011;16323;51.130;6.612;2023-04-25T06:30:05;3.30;;;1.15;;
29320;SDS011;16323;51.130;6.612;2023-04-25T06:32:34;3.85;;;0.90;;
29320;SDS011;16323;51.130;6.612;2023-04-25T06:35:01;6.75;;;1.40;;
29320;SDS011;16323;51.130;6.612;2023-04-25T06:37:28;3.00;;;1.08;;
29320;SDS011;16323;51.130;6.612;2023-04-25T06:39:55;2.10;;;0.90;;
29320;SDS011;16323;51.130;6.612;2023-04-25T06:42:22;2.53;;;1.17;;
29320;SDS011;16323;51.130;6.612;2023-04-25T06:44:48;6.07;;;1.85;;
29320;SDS011;16323;51.130;6.612;2023-04-25T06:47:15;3.55;;;1.20;;
29320;SDS011;16323;51.130;6.612;2023-04-25T06:49:43;3.00;;;1.27;;
29320;SDS011;16323;51.130;6.612;2023-04-25T06:52:10;2.30;;;1.08;;
29320;SDS011;16323;51.130;6.612;2023-04-25T06:54:37;4.20;;;1.17;;
29320;SDS011;16323;51.130;6.612;2023-04-25T06:57:03;2.42;;;1.20;;
29320;SDS011;16323;51.130;6.612;2023-04-25T06:59:30;4.03;;;1.13;;
29320;SDS011;16323;51.130;6.612;2023-04-25T07:01:57;3.28;;;0.95;;
29320;SDS011;16323;51.130;6.612;2023-04-25T07:04:24;5.15;;;1.27;;
29320;SDS011;16323;51.130;6.612;2023-04-25T07:06:52;4.10;;;1.10;;
29320;SDS011;16323;51.130;6.612;2023-04-25T07:09:19;4.05;;;0.93;;
29320;SDS011;16323;51.130;6.612;2023-04-25T07:11:46;2.42;;;1.00;;
29320;SDS011;16323;51.130;6.612;2023-04-25T07:14:13;4.55;;;1.10;;
29320;SDS011;16323;51.130;6.612;2023-04-25T07:16:40;2.58;;;1.08;;
29320;SDS011;16323;51.130;6.612;2023-04-25T07:19:06;4.10;;;1.20;;
29320;SDS011;16323;51.130;6.612;2023-04-25T07:21:33;2.78;;;0.90;;
29320;SDS011;16323;51.130;6.612;2023-04-25T07:24:02;3.92;;;0.90;;
29320;SDS011;16323;51.130;6.612;2023-04-25T07:26:30;3.22;;;1.08;;
29320;SDS011;16323;51.130;6.612;2023-04-25T07:28:56;3.15;;;1.00;;
29320;SDS011;16323;51.130;6.612;2023-04-25T07:31:23;2.50;;;0.93;;
29320;SDS011;16323;51.130;6.612;2023-04-25T07:33:50;2.47;;;1.00;;
29320;SDS011;16323;51.130;6.612;2023-04-25T07:36:17;3.30;;;0.90;;
29320;SDS011;16323;51.130;6.612;2023-04-25T07:38:44;2.67;;;0.77;;
29320;SDS011;16323;51.130;6.612;2023-04-25T07:41:12;2.67;;;1.17;;
29320;SDS011;16323;51.130;6.612;2023-04-25T07:43:39;2.55;;;0.88;;
29320;SDS011;16323;51.130;6.612;2023-04-25T07:46:05;2.38;;;0.93;;
29320;SDS011;16323;51.130;6.612;2023-04-25T07:48:32;4.40;;;0.90;;
29320;SDS011;16323;51.130;6.612;2023-04-25T07:50:59;3.10;;;1.00;;
29320;SDS011;16323;51.130;6.612;2023-04-25T07:53:26;3.03;;;1.00;;
29320;SDS011;16323;51.130;6.612;2023-04-25T07:55:53;3.38;;;0.90;;
29320;SDS011;16323;51.130;6.612;2023-04-25T07:58:21;3.70;;;1.05;;
29320;SDS011;16323;51.130;6.612;2023-04-25T08:00:47;3.03;;;0.90;;
29320;SDS011;16323;51.130;6.612;2023-04-25T08:03:14;2.85;;;1.08;;
29320;SDS011;16323;51.130;6.612;2023-04-25T08:05:41;3.85;;;0.90;;
29320;SDS011;16323;51.130;6.612;2023-04-25T08:08:08;4.53;;;1.02;;
29320;SDS011;16323;51.130;6.612;2023-04-25T08:10:35;4.43;;;1.00;;
29320;SDS011;16323;51.130;6.612;2023-04-25T08:13:02;2.63;;;0.90;;
29320;SDS011;16323;51.130;6.612;2023-04-25T08:15:30;3.10;;;1.10;;
29320;SDS011;16323;51.130;6.612;2023-04-25T08:17:57;4.28;;;1.27;;
29320;SDS011;16323;51.130;6.612;2023-04-25T08:20:24;3.63;;;0.80;;
29320;SDS011;16323;51.130;6.612;2023-04-25T08:22:51;5.15;;;0.88;;
29320;SDS011;16323;51.130;6.612;2023-04-25T08:25:18;3.67;;;0.68;;
29320;SDS011;16323;51.130;6.612;2023-04-25T08:27:45;3.30;;;1.08;;
29320;SDS011;16323;51.130;6.612;2023-04-25T08:30:12;2.17;;;0.80;;
29320;SDS011;16323;51.130;6.612;2023-04-25T08:32:40;2.30;;;1.00;;
29320;SDS011;16323;51.130;6.612;2023-04-25T08:35:07;2.95;;;1.10;;
29320;SDS011;16323;51.130;6.612;2023-04-25T08:37:34;3.10;;;0.77;;
29320;SDS011;16323;51.130;6.612;2023-04-25T08:40:01;2.65;;;0.98;;
29320;SDS011;16323;51.130;6.612;2023-04-25T08:42:32;6.13;;;1.23;;
29320;SDS011;16323;51.130;6.612;2023-04-25T08:45:00;2.20;;;0.85;;
29320;SDS011;16323;51.130;6.612;2023-04-25T08:47:28;3.97;;;0.95;;
29320;SDS011;16323;51.130;6.612;2023-04-25T08:49:58;3.35;;;1.00;;
29320;SDS011;16323;51.130;6.612;2023-04-25T08:52:27;2.83;;;0.85;;
29320;SDS011;16323;51.130;6.612;2023-04-25T08:54:58;2.38;;;0.63;;
29320;SDS011;16323;51.130;6.612;2023-04-25T08:57:27;3.25;;;0.82;;
29320;SDS011;16323;51.130;6.612;2023-04-25T08:59:55;3.35;;;1.00;;
29320;SDS011;16323;51.130;6.612;2023-04-25T09:02:23;3.22;;;0.90;;
29320;SDS011;16323;51.130;6.612;2023-04-25T09:04:51;1.73;;;0.70;;
29320;SDS011;16323;51.130;6.612;2023-04-25T09:07:21;2.80;;;1.00;;
29320;SDS011;16323;51.130;6.612;2023-04-25T09:09:47;2.75;;;0.70;;
29320;SDS011;16323;51.130;6.612;2023-04-25T09:12:14;3.70;;;0.80;;
29320;SDS011;16323;51.130;6.612;2023-04-25T09:14:42;2.50;;;0.75;;
29320;SDS011;16323;51.130;6.612;2023-04-25T09:17:08;3.33;;;0.90;;
29320;SDS011;16323;51.130;6.612;2023-04-25T09:19:35;2.05;;;0.90;;
29320;SDS011;16323;51.130;6.612;2023-04-25T09:22:05;3.00;;;0.75;;
29320;SDS011;16323;51.130;6.612;2023-04-25T09:24:34;1.88;;;0.85;;
29320;SDS011;16323;51.130;6.612;2023-04-25T09:27:05;1.35;;;0.82;;
29320;SDS011;16323;51.130;6.612;2023-04-25T09:29:33;2.63;;;0.90;;
29320;SDS011;16323;51.130;6.612;2023-04-25T09:34:45;2.00;;;0.90;;
29320;SDS011;16323;51.130;6.612;2023-04-25T09:37:16;2.47;;;0.68;;
29320;SDS011;16323;51.130;6.612;2023-04-25T09:39:46;3.47;;;0.80;;
29320;SDS011;16323;51.130;6.612;2023-04-25T09:42:14;2.17;;;0.90;;
29320;SDS011;16323;51.130;6.612;2023-04-25T09:44:42;3.35;;;0.65;;
29320;SDS011;16323;51.130;6.612;2023-04-25T09:47:10;4.07;;;0.80;;
29320;SDS011;16323;51.130;6.612;2023-04-25T09:49:38;2.85;;;0.80;;
29320;SDS011;16323;51.130;6.612;2023-04-25T09:52:07;3.35;;;0.90;;
29320;SDS011;16323;51.130;6.612;2023-04-25T09:54:34;1.75;;;0.60;;
29320;SDS011;16323;51.130;6.612;2023-04-25T09:57:03;2.08;;;1.00;;
29320;SDS011;16323;51.130;6.612;2023-04-25T09:59:36;1.77;;;0.82;;
29320;SDS011;16323;51.130;6.612;2023-04-25T10:02:06;3.13;;;0.73;;
29320;SDS011;16323;51.130;6.612;2023-04-25T10:04:34;2.00;;;1.00;;
29320;SDS011;16323;51.130;6.612;2023-04-25T10:07:02;3.13;;;0.88;;
29320;SDS011;16323;51.130;6.612;2023-04-25T10:09:31;1.27;;;0.70;;
29320;SDS011;16323;51.130;6.612;2023-04-25T10:12:00;2.78;;;0.80;;
29320;SDS011;16323;51.130;6.612;2023-04-25T10:14:29;2.85;;;0.82;;
29320;SDS011;16323;51.130;6.612;2023-04-25T10:16:57;2.40;;;0.65;;
29320;SDS011;16323;51.130;6.612;2023-04-25T10:19:24;3.00;;;0.85;;
29320;SDS011;16323;51.130;6.612;2023-04-25T10:21:52;4.32;;;0.77;;
29320;SDS011;16323;51.130;6.612;2023-04-25T10:24:24;2.15;;;0.75;;
29320;SDS011;16323;51.130;6.612;2023-04-25T10:26:52;4.40;;;0.70;;
29320;SDS011;16323;51.130;6.612;2023-04-25T10:29:21;1.77;;;0.70;;
29320;SDS011;16323;51.130;6.612;2023-04-25T10:31:50;1.42;;;0.60;;
29320;SDS011;16323;51.130;6.612;2023-04-25T10:34:17;2.80;;;0.63;;
29320;SDS011;16323;51.130;6.612;2023-04-25T10:36:48;0.93;;;0.40;;
29320;SDS011;16323;51.130;6.612;2023-04-25T10:39:21;2.72;;;0.65;;
29320;SDS011;16323;51.130;6.612;2023-04-25T10:41:52;1.80;;;0.70;;
29320;SDS011;16323;51.130;6.612;2023-04-25T10:44:21;1.80;;;0.80;;
29320;SDS011;16323;51.130;6.612;2023-04-25T10:46:49;2.45;;;0.90;;
29320;SDS011;16323;51.130;6.612;2023-04-25T10:52:11;2.17;;;0.60;;
29320;SDS011;16323;51.130;6.612;2023-04-25T10:54:42;1.58;;;0.70;;
29320;SDS011;16323;51.130;6.612;2023-04-25T10:59:52;2.30;;;0.70;;
29320;SDS011;16323;51.130;6.612;2023-04-25T11:02:20;1.15;;;0.60;;
29320;SDS011;16323;51.130;6.612;2023-04-25T11:04:52;4.40;;;0.57;;
29320;SDS011;16323;51.130;6.612;2023-04-25T11:07:23;3.13;;;1.08;;
29320;SDS011;16323;51.130;6.612;2023-04-25T11:09:55;1.98;;;0.80;;
29320;SDS011;16323;51.130;6.612;2023-04-25T11:12:21;2.55;;;0.60;;
29320;SDS011;16323;51.130;6.612;2023-04-25T11:14:57;2.47;;;0.80;;
29320;SDS011;16323;51.130;6.612;2023-04-25T11:17:27;2.58;;;0.70;;
29320;SDS011;16323;51.130;6.612;2023-04-25T11:19:54;1.75;;;0.55;;
29320;SDS011;16323;51.130;6.612;2023-04-25T11:22:22;1.20;;;0.52;;
29320;SDS011;16323;51.130;6.612;2023-04-25T11:24:49;1.23;;;0.50;;
29320;SDS011;16323;51.130;6.612;2023-04-25T11:27:16;1.75;;;0.70;;
29320;SDS011;16323;51.130;6.612;2023-04-25T11:29:43;2.03;;;0.70;;
29320;SDS011;16323;51.130;6.612;2023-04-25T11:32:12;1.90;;;0.80;;
29320;SDS011;16323;51.130;6.612;2023-04-25T11:34:42;2.50;;;0.60;;
29320;SDS011;16323;51.130;6.612;2023-04-25T11:37:10;1.85;;;0.73;;
29320;SDS011;16323;51.130;6.612;2023-04-25T11:39:37;1.25;;;0.40;;
29320;SDS011;16323;51.130;6.612;2023-04-25T11:42:04;1.40;;;0.43;;
29320;SDS011;16323;51.130;6.612;2023-04-25T11:44:31;1.48;;;0.50;;
29320;SDS011;16323;51.130;6.612;2023-04-25T11:46:58;1.50;;;0.63;;
29320;SDS011;16323;51.130;6.612;2023-04-25T11:49:29;1.85;;;0.52;;
29320;SDS011;16323;51.130;6.612;2023-04-25T11:51:58;3.35;;;0.90;;
29320;SDS011;16323;51.130;6.612;2023-04-25T11:54:25;1.25;;;0.52;;
29320;SDS011;16323;51.130;6.612;2023-04-25T11:56:51;2.20;;;0.65;;
29320;SDS011;16323;51.130;6.612;2023-04-25T11:59:18;2.03;;;0.50;;
29320;SDS011;16323;51.130;6.612;2023-04-25T12:01:50;1.95;;;0.60;;
29320;SDS011;16323;51.130;6.612;2023-04-25T12:04:17;1.58;;;0.63;;
29320;SDS011;16323;51.130;6.612;2023-04-25T12:06:46;1.25;;;0.63;;
29320;SDS011;16323;51.130;6.612;2023-04-25T12:09:15;2.00;;;0.70;;
29320;SDS011;16323;51.130;6.612;2023-04-25T12:11:44;1.38;;;0.57;;
29320;SDS011;16323;51.130;6.612;2023-04-25T12:14:12;2.20;;;0.50;;
29320;SDS011;16323;51.130;6.612;2023-04-25T12:16:49;2.42;;;0.70;;
29320;SDS011;16323;51.130;6.612;2023-04-25T12:19:16;2.40;;;0.40;;
29320;SDS011;16323;51.130;6.612;2023-04-25T12:21:45;3.50;;;0.50;;
29320;SDS011;16323;51.130;6.612;2023-04-25T12:24:12;1.42;;;0.57;;
29320;SDS011;16323;51.130;6.612;2023-04-25T12:26:48;2.22;;;0.80;;
29320;SDS011;16323;51.130;6.612;2023-04-25T12:29:17;1.10;;;0.63;;
29320;SDS011;16323;51.130;6.612;2023-04-25T12:31:45;1.85;;;0.70;;
29320;SDS011;16323;51.130;6.612;2023-04-25T12:34:12;2.70;;;0.68;;
29320;SDS011;16323;51.130;6.612;2023-04-25T12:36:39;2.08;;;0.50;;
29320;SDS011;16323;51.130;6.612;2023-04-25T12:39:06;1.83;;;0.55;;
29320;SDS011;16323;51.130;6.612;2023-04-25T12:41:34;1.77;;;0.60;;
29320;SDS011;16323;51.130;6.612;2023-04-25T12:44:02;1.67;;;0.52;;
29320;SDS011;16323;51.130;6.612;2023-04-25T12:46:29;1.75;;;0.55;;
29320;SDS011;16323;51.130;6.612;2023-04-25T12:48:56;6.05;;;0.90;;
29320;SDS011;16323;51.130;6.612;2023-04-25T12:51:23;3.85;;;0.65;;
29320;SDS011;16323;51.130;6.612;2023-04-25T12:53:51;2.75;;;0.60;;
29320;SDS011;16323;51.130;6.612;2023-04-25T12:56:18;2.40;;;0.73;;
29320;SDS011;16323;51.130;6.612;2023-04-25T12:58:47;3.35;;;0.68;;
29320;SDS011;16323;51.130;6.612;2023-04-25T13:01:14;0.98;;;0.43;;
29320;SDS011;16323;51.130;6.612;2023-04-25T13:03:41;4.22;;;0.65;;
29320;SDS011;16323;51.130;6.612;2023-04-25T13:06:08;2.63;;;0.55;;
29320;SDS011;16323;51.130;6.612;2023-04-25T13:08:35;1.25;;;0.40;;
29320;SDS011;16323;51.130;6.612;2023-04-25T13:11:03;3.25;;;0.52;;
29320;SDS011;16323;51.130;6.612;2023-04-25T13:13:30;1.30;;;0.40;;
29320;SDS011;16323;51.130;6.612;2023-04-25T13:16:00;4.95;;;0.60;;
29320;SDS011;16323;51.130;6.612;2023-04-25T13:18:27;0.70;;;0.47;;
29320;SDS011;16323;51.130;6.612;2023-04-25T13:20:55;1.48;;;0.47;;
29320;SDS011;16323;51.130;6.612;2023-04-25T13:23:22;1.08;;;0.43;;
29320;SDS011;16323;51.130;6.612;2023-04-25T13:25:49;1.75;;;0.63;;
29320;SDS011;16323;51.130;6.612;2023-04-25T13:28:16;0.40;;;0.35;;
29320;SDS011;16323;51.130;6.612;2023-04-25T13:30:43;1.92;;;0.50;;
29320;SDS011;16323;51.130;6.612;2023-04-25T13:33:12;0.43;;;0.40;;
29320;SDS011;16323;51.130;6.612;2023-04-25T13:35:39;1.02;;;0.40;;
29320;SDS011;16323;51.130;6.612;2023-04-25T13:38:06;2.75;;;0.40;;
29320;SDS011;16323;51.130;6.612;2023-04-25T13:40:33;1.20;;;0.50;;
29320;SDS011;16323;51.130;6.612;2023-04-25T13:43:01;2.05;;;0.50;;
29320;SDS011;16323;51.130;6.612;2023-04-25T13:45:28;0.90;;;0.50;;
29320;SDS011;16323;51.130;6.612;2023-04-25T13:47:55;4.47;;;0.50;;
29320;SDS011;16323;51.130;6.612;2023-04-25T13:50:23;2.08;;;0.60;;
29320;SDS011;16323;51.130;6.612;2023-04-25T13:52:50;1.30;;;0.55;;
29320;SDS011;16323;51.130;6.612;2023-04-25T13:55:17;0.40;;;0.20;;
29320;SDS011;16323;51.130;6.612;2023-04-25T13:57:44;0.70;;;0.40;;
29320;SDS011;16323;51.130;6.612;2023-04-25T14:00:12;2.15;;;0.60;;
29320;SDS011;16323;51.130;6.612;2023-04-25T14:02:39;1.02;;;0.45;;
29320;SDS011;16323;51.130;6.612;2023-04-25T14:05:06;1.30;;;0.45;;
29320;SDS011;16323;51.130;6.612;2023-04-25T14:07:36;1.33;;;0.50;;
29320;SDS011;16323;51.130;6.612;2023-04-25T14:10:03;0.85;;;0.40;;
29320;SDS011;16323;51.130;6.612;2023-04-25T14:12:31;0.47;;;0.40;;
29320;SDS011;16323;51.130;6.612;2023-04-25T14:14:58;1.02;;;0.40;;
29320;SDS011;16323;51.130;6.612;2023-04-25T14:17:25;1.63;;;0.52;;
29320;SDS011;16323;51.130;6.612;2023-04-25T14:19:51;1.23;;;0.47;;
29320;SDS011;16323;51.130;6.612;2023-04-25T14:22:18;0.88;;;0.40;;
29320;SDS011;16323;51.130;6.612;2023-04-25T14:24:46;1.55;;;0.32;;
29320;SDS011;16323;51.130;6.612;2023-04-25T14:27:13;1.10;;;0.30;;
29320;SDS011;16323;51.130;6.612;2023-04-25T14:29:40;0.95;;;0.35;;
29320;SDS011;16323;51.130;6.612;2023-04-25T14:32:07;1.33;;;0.35;;
29320;SDS011;16323;51.130;6.612;2023-04-25T14:34:35;2.58;;;0.57;;
29320;SDS011;16323;51.130;6.612;2023-04-25T14:37:02;2.35;;;0.77;;
29320;SDS011;16323;51.130;6.612;2023-04-25T14:39:28;1.17;;;0.40;;
29320;SDS011;16323;51.130;6.612;2023-04-25T14:41:57;1.83;;;0.52;;
29320;SDS011;16323;51.130;6.612;2023-04-25T14:44:23;0.77;;;0.32;;
29320;SDS011;16323;51.130;6.612;2023-04-25T14:46:50;1.40;;;0.75;;
29320;SDS011;16323;51.130;6.612;2023-04-25T14:49:17;4.10;;;0.50;;
29320;SDS011;16323;51.130;6.612;2023-04-25T14:51:45;0.40;;;0.25;;
29320;SDS011;16323;51.130;6.612;2023-04-25T14:54:11;1.08;;;0.47;;
29320;SDS011;16323;51.130;6.612;2023-04-25T14:56:38;1.15;;;0.30;;
29320;SDS011;16323;51.130;6.612;2023-04-25T14:59:06;2.03;;;0.40;;